createdAt,value
2019-05-14T00:01:05.515Z,6.80
2019-05-14T00:03:34.358Z,6.80
2019-05-14T00:06:03.194Z,6.90
2019-05-14T00:08:32.057Z,6.90
2019-05-14T00:11:01.481Z,6.90
2019-05-14T00:13:32.141Z,6.80
2019-05-14T00:16:01.519Z,6.80
2019-05-14T00:18:31.428Z,6.90
2019-05-14T00:21:02.035Z,6.90
2019-05-14T00:23:31.905Z,6.80
2019-05-14T00:26:04.770Z,6.90
2019-05-14T00:28:32.762Z,6.90
2019-05-14T00:31:02.949Z,6.90
2019-05-14T00:33:32.023Z,6.80
2019-05-14T00:36:02.043Z,6.70
2019-05-14T00:38:31.588Z,6.80
2019-05-14T00:41:01.999Z,6.80
2019-05-14T00:43:32.281Z,6.80
2019-05-14T00:46:01.806Z,6.80
2019-05-14T00:48:31.747Z,6.80
2019-05-14T00:51:02.286Z,6.90
2019-05-14T00:53:32.066Z,6.80
2019-05-14T00:56:02.119Z,6.90
2019-05-14T00:58:31.988Z,6.80
2019-05-14T01:01:01.551Z,6.90
2019-05-14T01:03:32.480Z,6.90
2019-05-14T01:06:02.891Z,6.90
2019-05-14T01:08:32.123Z,6.90
2019-05-14T01:11:01.667Z,6.90
2019-05-14T01:13:31.281Z,6.90
2019-05-14T01:16:01.565Z,6.90
2019-05-14T01:18:32.236Z,6.80
2019-05-14T01:21:01.659Z,6.90
2019-05-14T01:23:32.253Z,6.90
2019-05-14T01:26:02.337Z,6.90
2019-05-14T01:28:32.145Z,6.80
2019-05-14T01:31:01.312Z,6.80
2019-05-14T01:33:31.799Z,6.80
2019-05-14T01:36:02.051Z,6.80
2019-05-14T01:38:31.551Z,6.80
2019-05-14T01:41:01.900Z,6.80
2019-05-14T01:43:31.466Z,6.80
2019-05-14T01:46:01.954Z,6.80
2019-05-14T01:48:31.423Z,6.90
2019-05-14T01:51:01.609Z,6.90
2019-05-14T01:53:31.280Z,6.90
2019-05-14T01:56:01.693Z,6.90
2019-05-14T01:58:31.155Z,6.90
2019-05-14T02:01:01.981Z,7.00
2019-05-14T02:03:32.317Z,6.90
2019-05-14T02:06:01.584Z,7.00
2019-05-14T02:08:32.327Z,7.00
2019-05-14T02:11:01.873Z,7.00
2019-05-14T02:13:32.134Z,7.10
2019-05-14T02:16:01.881Z,7.00
2019-05-14T02:18:31.299Z,7.00
2019-05-14T02:21:01.611Z,7.00
2019-05-14T02:23:31.974Z,7.00
2019-05-14T02:26:02.600Z,7.10
2019-05-14T02:28:31.680Z,7.10
2019-05-14T02:31:03.478Z,7.10
2019-05-14T02:33:31.117Z,7.10
2019-05-14T02:36:00.376Z,7.20
2019-05-14T02:38:30.100Z,7.20
2019-05-14T02:41:00.253Z,7.20
2019-05-14T02:43:29.637Z,7.20
2019-05-14T02:46:10.720Z,7.20
2019-05-14T02:48:29.552Z,7.30
2019-05-14T02:50:59.961Z,7.30
2019-05-14T02:53:29.887Z,7.20
2019-05-14T02:55:59.635Z,7.20
2019-05-14T02:58:29.905Z,7.20
2019-05-14T03:01:00.386Z,7.30
2019-05-14T03:03:30.057Z,7.30
2019-05-14T03:06:00.389Z,7.30
2019-05-14T03:08:30.553Z,7.30
2019-05-14T03:11:00.507Z,7.30
2019-05-14T03:13:29.804Z,7.40
2019-05-14T03:15:59.533Z,7.30
2019-05-14T03:18:29.617Z,7.40
2019-05-14T03:21:00.762Z,7.50
2019-05-14T03:23:30.186Z,7.50
2019-05-14T03:26:00.570Z,7.50
2019-05-14T03:28:30.629Z,7.50
2019-05-14T03:31:02.984Z,7.50
2019-05-14T03:33:33.351Z,7.50
2019-05-14T03:36:08.365Z,7.60
2019-05-14T03:38:31.198Z,7.50
2019-05-14T03:41:00.610Z,7.40
2019-05-14T03:43:29.973Z,7.50
2019-05-14T03:45:59.478Z,7.60
2019-05-14T03:48:29.655Z,7.60
2019-05-14T03:51:00.143Z,7.60
2019-05-14T03:53:29.866Z,7.60
2019-05-14T03:56:00.207Z,7.70
2019-05-14T03:58:30.433Z,7.60
2019-05-14T04:01:02.176Z,7.60
2019-05-14T04:03:32.646Z,7.60
2019-05-14T04:06:02.972Z,7.70
2019-05-14T04:08:32.928Z,7.80
2019-05-14T04:11:02.378Z,7.80
2019-05-14T04:13:33.305Z,7.80
2019-05-14T04:16:05.161Z,7.80
2019-05-14T04:18:39.621Z,7.80
2019-05-14T04:21:09.570Z,7.80
2019-05-14T04:23:39.565Z,7.80
2019-05-14T04:26:09.568Z,7.80
2019-05-14T04:28:40.545Z,7.90
2019-05-14T04:31:11.669Z,7.90
2019-05-14T04:33:43.422Z,7.80
2019-05-14T04:36:12.561Z,7.90
2019-05-14T04:38:41.443Z,7.90
2019-05-14T04:41:10.829Z,8.00
2019-05-14T04:43:40.377Z,8.00
2019-05-14T04:46:10.702Z,8.00
2019-05-14T04:48:43.659Z,8.10
2019-05-14T04:51:10.313Z,8.10
2019-05-14T04:53:39.518Z,8.10
2019-05-14T04:56:09.751Z,8.10
2019-05-14T04:58:41.054Z,8.20
2019-05-14T05:01:10.158Z,8.20
2019-05-14T05:03:40.221Z,8.20
2019-05-14T05:06:10.130Z,8.20
2019-05-14T05:08:39.756Z,8.20
2019-05-14T05:11:09.453Z,8.20
2019-05-14T05:13:39.832Z,8.20
2019-05-14T05:16:09.863Z,8.20
2019-05-14T05:18:39.942Z,8.10
2019-05-14T05:21:09.202Z,8.20
2019-05-14T05:23:38.725Z,8.20
2019-05-14T05:26:09.229Z,8.30
2019-05-14T05:28:39.131Z,8.10
2019-05-14T05:31:09.229Z,8.10
2019-05-14T05:33:38.601Z,8.00
2019-05-14T05:36:09.405Z,8.00
2019-05-14T05:38:39.347Z,8.00
2019-05-14T05:41:09.065Z,8.00
2019-05-14T05:43:39.399Z,8.10
2019-05-14T05:46:08.766Z,8.00
2019-05-14T05:48:38.840Z,8.10
2019-05-14T05:51:09.081Z,8.10
2019-05-14T05:53:39.303Z,8.20
2019-05-14T05:56:09.040Z,8.20
2019-05-14T05:58:39.719Z,8.30
2019-05-14T06:01:09.795Z,8.50
2019-05-14T06:03:39.414Z,8.50
2019-05-14T06:06:13.353Z,8.50
2019-05-14T06:08:39.018Z,8.60
2019-05-14T06:11:08.430Z,8.80
2019-05-14T06:13:38.996Z,8.80
2019-05-14T06:16:09.445Z,8.90
2019-05-14T06:18:39.432Z,9.00
2019-05-14T06:21:09.202Z,9.30
2019-05-14T06:23:38.756Z,9.20
2019-05-14T06:26:11.385Z,9.20
2019-05-14T06:28:40.958Z,9.30
2019-05-14T06:31:09.916Z,9.40
2019-05-14T06:33:39.567Z,9.30
2019-05-14T06:36:08.862Z,9.40
2019-05-14T06:38:38.874Z,9.20
2019-05-14T06:41:13.346Z,8.80
2019-05-14T06:43:42.187Z,8.80
2019-05-14T06:46:11.015Z,8.80
2019-05-14T06:48:39.941Z,8.60
2019-05-14T06:51:08.986Z,8.50
2019-05-14T06:53:39.166Z,8.50
2019-05-14T06:56:08.351Z,8.40
2019-05-14T06:58:38.849Z,8.50
2019-05-14T07:01:09.669Z,8.80
2019-05-14T07:03:38.383Z,8.80
2019-05-14T07:06:08.973Z,8.90
2019-05-14T07:08:39.338Z,8.80
2019-05-14T07:11:08.710Z,8.70
2019-05-14T07:13:38.554Z,8.80
2019-05-14T07:16:09.038Z,8.80
2019-05-14T07:18:46.425Z,8.90
2019-05-14T07:21:08.573Z,8.90
2019-05-14T07:23:38.533Z,9.00
2019-05-14T07:26:08.367Z,8.90
2019-05-14T07:28:41.966Z,8.90
2019-05-14T07:31:09.713Z,9.10
2019-05-14T07:33:38.958Z,9.30
2019-05-14T07:36:08.902Z,9.50
2019-05-14T07:38:39.183Z,9.60
2019-05-14T07:41:09.262Z,9.70
2019-05-14T07:43:39.400Z,9.80
2019-05-14T07:46:09.807Z,9.90
2019-05-14T07:48:39.243Z,9.80
2019-05-14T07:51:09.046Z,9.70
2019-05-14T07:53:41.703Z,9.50
2019-05-14T07:58:34.438Z,9.10
2019-05-14T08:01:03.261Z,9.30
2019-05-14T08:03:32.114Z,9.30
2019-05-14T08:06:00.954Z,9.40
2019-05-14T08:08:29.789Z,9.40
2019-05-14T08:10:59.243Z,9.50
2019-05-14T08:13:28.541Z,9.70
2019-05-14T08:15:58.331Z,9.90
2019-05-14T08:18:28.993Z,9.90
2019-05-14T08:20:59.160Z,10.10
2019-05-14T08:23:28.441Z,10.20
2019-05-14T08:25:58.689Z,10.10
2019-05-14T08:28:28.999Z,10.20
2019-05-14T08:30:58.482Z,10.50
2019-05-14T08:33:29.104Z,10.70
2019-05-14T08:35:58.343Z,11.00
2019-05-14T08:38:28.466Z,11.00
2019-05-14T08:40:58.990Z,10.60
2019-05-14T08:43:29.112Z,10.40
2019-05-14T08:45:58.803Z,10.20
2019-05-14T08:48:29.635Z,10.70
2019-05-14T08:50:58.857Z,11.00
2019-05-14T08:53:28.738Z,10.80
2019-05-14T08:55:58.811Z,11.10
2019-05-14T08:58:30.036Z,11.20
2019-05-14T09:00:58.906Z,11.50
2019-05-14T09:03:28.738Z,12.10
2019-05-14T09:06:00.744Z,12.20
2019-05-14T09:08:28.548Z,11.50
2019-05-14T09:10:59.100Z,11.40
2019-05-14T09:13:29.004Z,11.90
2019-05-14T09:15:58.407Z,11.90
2019-05-14T09:18:29.010Z,12.10
2019-05-14T09:20:58.370Z,11.90
2019-05-14T09:23:28.583Z,11.70
2019-05-14T09:25:58.896Z,11.00
2019-05-14T09:28:28.617Z,11.50
2019-05-14T09:30:59.655Z,12.10
2019-05-14T09:33:29.641Z,12.70
2019-05-14T09:36:13.748Z,12.50
2019-05-14T09:38:29.489Z,12.90
2019-05-14T09:41:08.134Z,13.50
2019-05-14T09:43:29.092Z,13.30
2019-05-14T09:45:58.697Z,13.00
2019-05-14T09:48:28.586Z,12.20
2019-05-14T09:50:59.037Z,12.10
2019-05-14T09:53:28.887Z,11.80
2019-05-14T09:55:58.396Z,11.80
2019-05-14T09:58:28.245Z,11.40
2019-05-14T10:00:59.059Z,11.80
2019-05-14T10:03:28.232Z,12.30
2019-05-14T10:05:58.956Z,12.30
2019-05-14T10:08:28.526Z,12.80
2019-05-14T10:11:00.323Z,12.90
2019-05-14T10:13:28.291Z,12.30
2019-05-14T10:15:58.939Z,11.90
2019-05-14T10:18:28.481Z,12.20
2019-05-14T10:20:59.063Z,13.10
2019-05-14T10:23:28.462Z,13.20
2019-05-14T10:25:58.069Z,12.50
2019-05-14T10:28:28.867Z,12.60
2019-05-14T10:30:59.953Z,12.80
2019-05-14T10:33:28.882Z,14.40
2019-05-14T10:35:58.909Z,15.80
2019-05-14T10:38:29.521Z,17.50
2019-05-14T10:40:58.587Z,17.30
2019-05-14T10:43:29.104Z,15.70
2019-05-14T10:45:58.163Z,15.30
2019-05-14T10:48:29.132Z,15.60
2019-05-14T10:51:03.383Z,14.30
2019-05-14T10:53:29.979Z,14.10
2019-05-14T10:56:00.316Z,14.70
2019-05-14T10:58:29.341Z,14.80
2019-05-14T11:00:58.961Z,14.10
2019-05-14T11:03:30.113Z,14.20
2019-05-14T11:05:59.526Z,15.00
2019-05-14T11:08:29.660Z,15.30
2019-05-14T11:11:03.887Z,15.00
2019-05-14T11:13:29.594Z,14.00
2019-05-14T11:15:59.707Z,13.80
2019-05-14T11:18:29.261Z,13.80
2019-05-14T11:21:18.224Z,14.70
2019-05-14T11:23:29.818Z,14.50
2019-05-14T11:25:59.330Z,14.10
2019-05-14T11:28:28.823Z,14.00
2019-05-14T11:30:57.725Z,13.80
2019-05-14T11:33:29.500Z,13.50
2019-05-14T11:35:58.518Z,13.70
2019-05-14T11:38:36.060Z,13.40
2019-05-14T11:40:58.750Z,13.20
2019-05-14T11:43:28.659Z,13.00
2019-05-14T11:45:59.369Z,13.20
2019-05-14T11:48:28.505Z,12.70
2019-05-14T11:50:59.464Z,12.10
2019-05-14T11:53:27.858Z,12.10
2019-05-14T11:55:58.732Z,12.10
2019-05-14T11:58:29.489Z,12.30
2019-05-14T12:00:58.478Z,12.70
2019-05-14T12:03:28.630Z,12.30
2019-05-14T12:05:58.644Z,12.20
2019-05-14T12:08:28.840Z,12.30
2019-05-14T12:10:59.267Z,12.10
2019-05-14T12:13:32.154Z,11.60
2019-05-14T12:15:59.193Z,11.50
2019-05-14T12:18:29.205Z,11.30
2019-05-14T12:20:59.448Z,11.80
2019-05-14T12:23:29.785Z,12.00
2019-05-14T12:25:58.982Z,11.50
2019-05-14T12:28:29.139Z,11.40
2019-05-14T12:30:58.479Z,11.30
2019-05-14T12:33:30.826Z,11.60
2019-05-14T12:36:00.467Z,11.60
2019-05-14T12:38:29.677Z,11.90
2019-05-14T12:40:58.675Z,12.10
2019-05-14T12:43:28.410Z,11.90
2019-05-14T12:45:59.303Z,12.10
2019-05-14T12:48:29.869Z,12.40
2019-05-14T12:50:59.499Z,12.50
2019-05-14T12:53:28.912Z,12.60
2019-05-14T12:55:57.874Z,12.70
2019-05-14T12:58:28.572Z,12.80
2019-05-14T13:00:59.441Z,12.50
2019-05-14T13:03:28.473Z,12.30
2019-05-14T13:05:58.577Z,12.30
2019-05-14T13:08:27.618Z,11.50
2019-05-14T13:10:58.656Z,11.10
2019-05-14T13:13:29.045Z,10.90
2019-05-14T13:15:57.448Z,10.90
2019-05-14T13:18:28.876Z,11.20
2019-05-14T13:20:56.793Z,11.30
2019-05-14T13:23:25.715Z,11.10
2019-05-14T13:25:54.464Z,11.10
2019-05-14T13:28:23.298Z,11.00
2019-05-14T13:30:52.066Z,11.00
2019-05-14T13:33:20.913Z,10.70
2019-05-14T13:35:49.770Z,10.70
2019-05-14T13:38:18.634Z,10.70
2019-05-14T13:40:49.185Z,10.70
2019-05-14T13:43:19.091Z,10.70
2019-05-14T13:45:49.429Z,10.70
2019-05-14T13:48:18.977Z,10.70
2019-05-14T13:50:49.023Z,10.70
2019-05-14T13:53:18.990Z,10.80
2019-05-14T13:55:56.748Z,11.00
2019-05-14T13:58:20.772Z,10.70
2019-05-14T14:00:51.940Z,10.70
2019-05-14T14:03:20.196Z,10.70
2019-05-14T14:05:49.937Z,10.50
2019-05-14T14:08:19.463Z,10.60
2019-05-14T14:10:53.720Z,10.70
2019-05-14T14:13:20.767Z,10.60
2019-05-14T14:15:49.634Z,10.40
2019-05-14T14:18:20.935Z,10.60
2019-05-14T14:20:49.115Z,10.80
2019-05-14T14:23:25.617Z,10.90
2019-05-14T14:25:53.606Z,10.90
2019-05-14T14:28:19.249Z,11.00
2019-05-14T14:30:49.177Z,10.90
2019-05-14T14:33:18.733Z,10.90
2019-05-14T14:35:48.642Z,10.80
2019-05-14T14:38:20.125Z,10.80
2019-05-14T14:40:48.742Z,10.60
2019-05-14T14:43:19.000Z,10.50
2019-05-14T14:45:51.372Z,10.60
2019-05-14T14:48:20.556Z,10.60
2019-05-14T14:50:50.073Z,10.50
2019-05-14T14:53:21.863Z,10.60
2019-05-14T14:55:50.085Z,10.60
2019-05-14T14:58:19.919Z,10.50
2019-05-14T15:00:49.175Z,10.50
2019-05-14T15:03:21.233Z,10.70
2019-05-14T15:05:49.792Z,10.80
2019-05-14T15:08:20.102Z,10.80
2019-05-14T15:10:49.268Z,10.80
2019-05-14T15:13:18.119Z,10.80
2019-05-14T15:15:49.509Z,10.70
2019-05-14T15:18:18.773Z,10.80
2019-05-14T15:20:48.904Z,10.70
2019-05-14T15:23:19.357Z,10.60
2019-05-14T15:25:48.507Z,10.40
2019-05-14T15:28:18.935Z,10.20
2019-05-14T15:30:49.846Z,10.20
2019-05-14T15:33:18.997Z,10.30
2019-05-14T15:35:49.095Z,10.30
2019-05-14T15:38:18.046Z,10.50
2019-05-14T15:40:48.880Z,10.60
2019-05-14T15:43:18.801Z,10.60
2019-05-14T15:45:48.380Z,10.50
2019-05-14T15:48:19.907Z,10.60
2019-05-14T15:50:50.153Z,10.60
2019-05-14T15:53:19.559Z,10.60
2019-05-14T15:55:49.103Z,10.80
2019-05-14T15:58:21.440Z,11.00
2019-05-14T16:00:49.992Z,11.00
2019-05-14T16:03:18.954Z,11.10
2019-05-14T16:05:48.859Z,11.00
2019-05-14T16:08:22.155Z,11.20
2019-05-14T16:10:48.637Z,11.40
2019-05-14T16:13:20.955Z,11.30
2019-05-14T16:15:48.425Z,11.30
2019-05-14T16:18:21.634Z,11.20
2019-05-14T16:20:49.983Z,11.00
2019-05-14T16:23:18.835Z,11.10
2019-05-14T16:25:48.315Z,10.80
2019-05-14T16:28:19.605Z,10.70
2019-05-14T16:30:49.721Z,10.70
2019-05-14T16:33:18.743Z,10.70
2019-05-14T16:35:48.596Z,10.70
2019-05-14T16:38:17.719Z,10.80
2019-05-14T16:40:48.936Z,10.70
2019-05-14T16:43:19.154Z,10.60
2019-05-14T16:45:49.173Z,10.60
2019-05-14T16:48:18.393Z,10.50
2019-05-14T16:50:48.913Z,10.50
2019-05-14T16:53:19.569Z,10.40
2019-05-14T16:55:48.946Z,10.30
2019-05-14T16:58:19.523Z,10.20
2019-05-14T17:00:49.853Z,10.10
2019-05-14T17:03:19.187Z,10.20
2019-05-14T17:05:48.722Z,10.10
2019-05-14T17:08:19.017Z,10.00
2019-05-14T17:10:48.386Z,10.10
2019-05-14T17:13:17.941Z,9.90
2019-05-14T17:15:48.161Z,10.00
2019-05-14T17:18:19.295Z,10.00
2019-05-14T17:20:48.793Z,10.00
2019-05-14T17:23:19.293Z,9.90
2019-05-14T17:25:48.623Z,9.90
2019-05-14T17:28:17.653Z,9.80
2019-05-14T17:30:48.977Z,9.80
2019-05-14T17:33:18.543Z,9.70
2019-05-14T17:35:48.285Z,9.80
2019-05-14T17:38:18.463Z,9.70
2019-05-14T17:40:48.817Z,9.80
2019-05-14T17:43:19.474Z,9.80
2019-05-14T17:45:48.510Z,9.60
2019-05-14T17:48:18.287Z,9.60
2019-05-14T17:50:49.129Z,9.60
2019-05-14T17:53:18.335Z,9.70
2019-05-14T17:55:50.608Z,9.70
2019-05-14T17:58:19.504Z,9.70
2019-05-14T18:00:48.326Z,9.70
2019-05-14T18:03:18.418Z,9.60
2019-05-14T18:05:47.519Z,9.50
2019-05-14T18:08:18.523Z,9.50
2019-05-14T18:10:49.722Z,9.40
2019-05-14T18:13:18.782Z,9.30
2019-05-14T18:15:48.862Z,9.30
2019-05-14T18:18:18.431Z,9.30
2019-05-14T18:20:48.941Z,9.20
2019-05-14T18:23:18.168Z,9.20
2019-05-14T18:26:02.752Z,9.10
2019-05-14T18:28:18.029Z,9.10
2019-05-14T18:30:48.961Z,9.10
2019-05-14T18:33:18.714Z,9.10
2019-05-14T18:35:50.210Z,9.10
2019-05-14T18:38:19.433Z,9.10
2019-05-14T18:40:49.520Z,9.10
2019-05-14T18:43:18.865Z,9.00
2019-05-14T18:45:49.102Z,9.00
2019-05-14T18:48:19.430Z,8.90
2019-05-14T18:50:48.550Z,8.80
2019-05-14T18:53:19.060Z,8.90
2019-05-14T18:55:48.970Z,8.90
2019-05-14T18:58:19.524Z,8.90
2019-05-14T19:00:48.625Z,8.90
2019-05-14T19:03:19.675Z,8.80
2019-05-14T19:05:48.223Z,8.80
2019-05-14T19:08:17.963Z,8.80
2019-05-14T19:10:49.434Z,8.70
2019-05-14T19:13:18.693Z,8.70
2019-05-14T19:15:48.368Z,8.70
2019-05-14T19:18:19.255Z,8.60
2019-05-14T19:20:48.639Z,8.60
2019-05-14T19:23:18.738Z,8.60
2019-05-14T19:25:48.398Z,8.60
2019-05-14T19:28:18.746Z,8.60
2019-05-14T19:30:48.808Z,8.50
2019-05-14T19:33:20.565Z,8.50
2019-05-14T19:35:48.572Z,8.50
2019-05-14T19:38:17.946Z,8.60
2019-05-14T19:40:48.407Z,8.50
2019-05-14T19:43:19.119Z,8.60
2019-05-14T19:45:48.598Z,8.50
2019-05-14T19:48:18.963Z,8.50
2019-05-14T19:50:49.074Z,8.50
2019-05-14T19:53:18.019Z,8.50
2019-05-14T19:55:48.565Z,8.40
2019-05-14T19:58:20.221Z,8.40
2019-05-14T20:00:48.890Z,8.20
2019-05-14T20:03:18.737Z,8.20
2019-05-14T20:05:47.886Z,8.10
2019-05-14T20:08:18.898Z,8.00
2019-05-14T20:10:48.967Z,8.00
2019-05-14T20:13:19.312Z,7.90
2019-05-14T20:15:48.843Z,7.90
2019-05-14T20:18:17.840Z,7.80
2019-05-14T20:20:49.077Z,7.70
2019-05-14T20:23:18.532Z,7.70
2019-05-14T20:25:48.164Z,7.70
2019-05-14T20:28:18.922Z,7.70
2019-05-14T20:30:49.244Z,7.70
2019-05-14T20:33:19.098Z,7.60
2019-05-14T20:35:48.712Z,7.60
2019-05-14T20:38:18.469Z,7.60
2019-05-14T20:40:48.728Z,7.60
2019-05-14T20:43:18.488Z,7.50
2019-05-14T20:45:48.864Z,7.60
2019-05-14T20:48:18.877Z,7.90
2019-05-14T20:50:47.960Z,8.20
2019-05-14T20:53:18.506Z,8.20
2019-05-14T20:55:47.738Z,8.30
2019-05-14T20:58:19.598Z,8.20
2019-05-14T21:00:48.753Z,8.10
2019-05-14T21:03:18.755Z,8.00
2019-05-14T21:05:49.086Z,8.00
2019-05-14T21:08:18.844Z,7.90
2019-05-14T21:10:49.423Z,7.90
2019-05-14T21:13:18.588Z,7.90
2019-05-14T21:15:48.267Z,7.90
2019-05-14T21:18:18.977Z,7.90
2019-05-14T21:20:48.837Z,7.90
2019-05-14T21:23:18.337Z,7.80
2019-05-14T21:25:48.331Z,7.90
2019-05-14T21:28:17.383Z,7.90
2019-05-14T21:30:48.334Z,7.90
2019-05-14T21:33:16.711Z,7.90
2019-05-14T21:35:45.558Z,7.90
2019-05-14T21:38:14.412Z,7.90
2019-05-14T21:40:43.258Z,7.90
2019-05-14T21:43:12.101Z,7.90
2019-05-14T21:45:40.918Z,8.00
2019-05-14T21:48:09.796Z,7.90
2019-05-14T21:50:38.999Z,8.00
2019-05-14T21:53:08.568Z,8.00
2019-05-14T21:55:38.858Z,8.00
2019-05-14T21:58:09.054Z,8.00
2019-05-14T22:00:43.040Z,7.90
2019-05-14T22:03:12.021Z,7.80
2019-05-14T22:05:40.837Z,7.80
2019-05-14T22:08:09.675Z,7.70
2019-05-14T22:10:39.583Z,7.70
2019-05-14T22:13:09.186Z,7.60
2019-05-14T22:15:38.868Z,7.60
2019-05-14T22:18:17.291Z,7.60
2019-05-14T22:20:39.011Z,7.50
2019-05-14T22:23:08.825Z,7.50
2019-05-14T22:25:39.413Z,7.60
2019-05-14T22:28:15.020Z,7.50
2019-05-14T22:30:39.106Z,7.50
2019-05-14T22:33:08.706Z,7.50
2019-05-14T22:35:39.520Z,7.50
2019-05-14T22:38:08.254Z,7.40
2019-05-14T22:40:39.102Z,7.40
2019-05-14T22:43:09.224Z,7.40
2019-05-14T22:45:38.285Z,7.40
2019-05-14T22:48:09.263Z,7.50
2019-05-14T22:50:38.633Z,7.50
2019-05-14T22:53:09.331Z,7.50
2019-05-14T22:55:38.397Z,7.60
2019-05-14T22:58:09.954Z,7.50
2019-05-14T23:00:45.326Z,7.40
2019-05-14T23:03:08.263Z,7.50
2019-05-14T23:05:39.216Z,7.40
2019-05-14T23:08:08.970Z,7.30
2019-05-14T23:10:38.810Z,7.30
2019-05-14T23:13:09.354Z,7.30
2019-05-14T23:15:38.626Z,7.20
2019-05-14T23:18:08.536Z,7.20
2019-05-14T23:20:39.020Z,7.20
2019-05-14T23:23:09.239Z,7.10
2019-05-14T23:25:38.894Z,7.00
2019-05-14T23:28:08.547Z,7.00
2019-05-14T23:30:38.809Z,7.00
2019-05-14T23:33:07.964Z,7.00
2019-05-14T23:35:39.008Z,7.00
2019-05-14T23:38:08.354Z,6.90
2019-05-14T23:40:38.692Z,6.80
2019-05-14T23:43:07.847Z,6.80
2019-05-14T23:45:38.057Z,6.80
2019-05-14T23:48:09.394Z,6.70
2019-05-14T23:50:37.978Z,6.70
2019-05-14T23:53:09.231Z,6.80
2019-05-14T23:55:38.540Z,6.70
2019-05-14T23:58:08.342Z,6.60
